Santa Fe, New Mexico
Current Conditions -  °F | °C
As of 9:53 AM on Friday 24 Oct 2014 (Local Time) from KSAF Reporting Station
Clear Clear  
Wind Chill: 14°   Ceiling: Unl
Heat Index: 14°   Visibility: 10mi
Dew Point: -1°   Wind: 14mph
Humidity: 36%   Direction: 360°N
Pressure: 30.37"   Gusts: NA
Location:  35.69°N, 105.93°W
Report Text: KSAF 241553Z 36012KT 10SM CLR 14/M01 A3037 RMK AO2 SLP221 T01441006
Loading
Personal Weather Stations






























Interactive Weather Map
Tropical Storm Tracking
New forecast layout! Learn more

10-Day Weather Forecast

Advertisements
Track Severe Weather on mobile